createdAt,value
2018-06-14T00:01:05.089Z,4.63
2018-06-14T00:03:36.084Z,5.63
2018-06-14T00:06:07.592Z,4.43
2018-06-14T00:08:37.883Z,4.83
2018-06-14T00:11:08.119Z,3.87
2018-06-14T00:13:39.086Z,5.03
2018-06-14T00:16:11.062Z,4.07
2018-06-14T00:18:41.048Z,3.33
2018-06-14T00:21:12.658Z,4.87
2018-06-14T00:23:42.940Z,4.77
2018-06-14T00:26:15.623Z,6.07
2018-06-14T00:28:46.829Z,4.63
2018-06-14T00:31:17.006Z,4.83
2018-06-14T00:33:48.855Z,6.03
2018-06-14T00:36:19.457Z,5.53
2018-06-14T00:38:49.830Z,3.83
2018-06-14T00:41:20.154Z,5.00
2018-06-14T00:43:50.573Z,5.23
2018-06-14T00:46:20.906Z,4.77
2018-06-14T00:48:51.749Z,5.10
2018-06-14T00:51:23.031Z,3.90
2018-06-14T00:53:54.760Z,4.47
2018-06-14T00:56:25.319Z,5.13
2018-06-14T00:58:55.224Z,3.27
2018-06-14T01:01:25.579Z,5.23
2018-06-14T01:03:56.116Z,4.90
2018-06-14T01:06:26.229Z,6.57
2018-06-14T01:08:57.578Z,5.23
2018-06-14T01:11:27.761Z,7.43
2018-06-14T01:13:57.777Z,4.73
2018-06-14T01:16:28.336Z,3.73
2018-06-14T01:18:58.265Z,5.00
2018-06-14T01:21:29.980Z,5.30
2018-06-14T01:24:00.480Z,5.43
2018-06-14T01:26:30.951Z,4.63
2018-06-14T01:29:01.344Z,8.07
2018-06-14T01:31:30.663Z,3.27
2018-06-14T01:34:02.233Z,5.33
2018-06-14T01:36:32.948Z,5.33
2018-06-14T01:39:05.366Z,4.17
2018-06-14T01:41:35.763Z,4.87
2018-06-14T01:44:06.111Z,4.53
2018-06-14T01:46:53.193Z,4.23
2018-06-14T01:49:24.333Z,6.90
2018-06-14T01:51:55.339Z,4.33
2018-06-14T01:54:25.369Z,5.43
2018-06-14T01:56:55.783Z,5.60
2018-06-14T01:59:25.727Z,4.80
2018-06-14T02:01:56.069Z,4.83
2018-06-14T02:04:26.461Z,4.30
2018-06-14T02:06:57.075Z,4.40
2018-06-14T02:09:27.124Z,5.57
2018-06-14T02:11:57.305Z,3.87
2018-06-14T02:14:31.642Z,4.07
2018-06-14T02:17:02.286Z,5.13
2018-06-14T02:19:32.296Z,5.07
2018-06-14T02:22:02.614Z,3.33
2018-06-14T02:24:33.066Z,3.90
2018-06-14T02:27:03.377Z,4.00
2018-06-14T02:29:33.288Z,6.50
2018-06-14T02:32:05.062Z,4.53
2018-06-14T02:34:35.173Z,6.17
2018-06-14T02:37:05.459Z,4.63
2018-06-14T02:39:44.461Z,6.27
2018-06-14T02:42:15.018Z,4.60
2018-06-14T02:44:45.797Z,4.80
2018-06-14T02:47:15.931Z,3.60
2018-06-14T02:49:47.000Z,4.97
2018-06-14T02:52:17.285Z,3.83
2018-06-14T02:54:47.677Z,3.77
2018-06-14T02:57:21.149Z,3.67
2018-06-14T02:59:53.481Z,3.60
2018-06-14T03:02:24.945Z,4.63
2018-06-14T03:04:58.605Z,3.20
2018-06-14T03:07:35.180Z,3.47
2018-06-14T03:10:08.555Z,6.40
2018-06-14T03:12:41.902Z,5.03
2018-06-14T03:15:15.104Z,3.40
2018-06-14T03:17:50.387Z,6.67
2018-06-14T03:20:29.785Z,4.97
2018-06-14T03:23:04.148Z,3.77
2018-06-14T03:25:35.624Z,4.50
2018-06-14T03:28:06.259Z,6.50
2018-06-14T03:30:35.650Z,4.33
2018-06-14T03:33:06.483Z,4.53
2018-06-14T03:35:37.089Z,4.80
2018-06-14T03:38:10.242Z,5.27
2018-06-14T03:40:40.567Z,7.50
2018-06-14T03:46:04.550Z,7.10
2018-06-14T03:48:34.527Z,5.27
2018-06-14T03:51:04.860Z,4.60
2018-06-14T03:53:35.452Z,5.10
2018-06-14T03:56:05.636Z,4.70
2018-06-14T03:58:35.948Z,5.13
2018-06-14T04:01:05.920Z,5.10
2018-06-14T04:03:35.923Z,6.20
2018-06-14T04:06:06.163Z,3.67
2018-06-14T04:08:36.289Z,5.17
2018-06-14T04:11:06.138Z,4.83
2018-06-14T04:13:36.999Z,5.77
2018-06-14T04:16:06.939Z,5.30
2018-06-14T04:19:12.210Z,5.17
2018-06-14T04:21:42.294Z,4.90
2018-06-14T04:24:23.061Z,4.93
2018-06-14T04:26:53.441Z,4.67
2018-06-14T04:29:23.342Z,6.10
2018-06-14T04:31:56.667Z,4.07
2018-06-14T04:34:26.888Z,5.40
2018-06-14T04:36:59.760Z,4.93
2018-06-14T04:39:39.533Z,5.70
2018-06-14T04:42:32.407Z,5.00
2018-06-14T04:48:07.673Z,7.07
2018-06-14T04:50:37.718Z,5.10
2018-06-14T04:53:08.022Z,6.90
2018-06-14T04:55:38.675Z,3.83
2018-06-14T04:58:09.688Z,9.23
2018-06-14T05:00:41.217Z,4.00
2018-06-14T05:03:11.519Z,3.97
2018-06-14T05:05:42.010Z,4.03
2018-06-14T05:08:13.094Z,4.60
2018-06-14T05:10:44.593Z,4.27
2018-06-14T05:13:14.601Z,4.90
2018-06-14T05:15:45.913Z,4.77
2018-06-14T05:18:15.952Z,4.30
2018-06-14T05:20:47.342Z,4.70
2018-06-14T05:23:17.669Z,5.20
2018-06-14T05:25:48.594Z,4.10
2018-06-14T05:28:18.877Z,4.20
2018-06-14T05:30:49.550Z,5.83
2018-06-14T05:33:21.482Z,6.33
2018-06-14T05:35:52.764Z,3.90
2018-06-14T05:38:22.904Z,6.00
2018-06-14T05:40:53.447Z,4.97
2018-06-14T05:43:25.020Z,7.43
2018-06-14T05:45:55.183Z,6.00
2018-06-14T05:48:25.672Z,6.17
2018-06-14T05:50:56.283Z,4.27
2018-06-14T05:53:25.698Z,6.33
2018-06-14T05:55:57.008Z,4.97
2018-06-14T05:58:28.530Z,4.40
2018-06-14T06:00:59.827Z,15.03
2018-06-14T06:03:30.894Z,39.50
2018-06-14T06:06:01.289Z,30.53
2018-06-14T06:08:31.828Z,16.00
2018-06-14T06:11:02.664Z,8.90
2018-06-14T06:13:33.409Z,6.63
2018-06-14T06:16:07.981Z,4.43
2018-06-14T06:18:45.846Z,3.53
2018-06-14T06:21:18.448Z,3.33
2018-06-14T06:23:48.742Z,5.07
2018-06-14T06:26:18.282Z,4.33
2018-06-14T06:28:51.397Z,3.23
2018-06-14T06:31:24.394Z,8.33
2018-06-14T06:33:55.769Z,4.90
2018-06-14T06:36:30.333Z,6.70
2018-06-14T06:39:02.284Z,7.83
2018-06-14T06:41:34.019Z,8.40
2018-06-14T06:44:08.032Z,5.73
2018-06-14T06:46:40.407Z,6.17
2018-06-14T06:49:11.358Z,4.57
2018-06-14T06:51:43.000Z,7.23
2018-06-14T06:54:13.806Z,9.53
2018-06-14T06:56:45.089Z,11.33
2018-06-14T06:59:18.759Z,9.87
2018-06-14T07:01:58.679Z,8.30
2018-06-14T07:04:31.224Z,12.60
2018-06-14T07:07:03.901Z,8.17
2018-06-14T07:09:35.569Z,9.70
2018-06-14T07:12:07.664Z,10.60
2018-06-14T07:14:39.074Z,7.30
2018-06-14T07:17:14.145Z,10.43
2018-06-14T07:19:47.929Z,9.13
2018-06-14T07:22:18.213Z,10.07
2018-06-14T07:24:48.805Z,9.13
2018-06-14T07:27:19.905Z,9.33
2018-06-14T07:29:53.301Z,6.63
2018-06-14T07:32:27.500Z,8.30
2018-06-14T07:35:00.653Z,7.20
2018-06-14T07:37:33.879Z,7.90
2018-06-14T07:40:23.673Z,5.20
2018-06-14T07:43:04.755Z,7.13
2018-06-14T07:45:36.850Z,6.20
2018-06-14T07:48:08.840Z,5.60
2018-06-14T07:50:42.248Z,5.27
2018-06-14T07:53:16.528Z,7.57
2018-06-14T07:55:49.861Z,8.50
2018-06-14T07:58:20.961Z,4.70
2018-06-14T08:00:56.941Z,6.27
2018-06-14T08:03:30.927Z,7.90
2018-06-14T08:06:01.820Z,8.77
2018-06-14T08:08:35.434Z,5.80
2018-06-14T08:11:09.535Z,5.27
2018-06-14T08:13:43.034Z,8.43
2018-06-14T08:16:13.702Z,5.67
2018-06-14T08:18:44.281Z,5.73
2018-06-14T08:21:14.751Z,5.63
2018-06-14T08:23:48.339Z,9.50
2018-06-14T08:26:20.180Z,5.47
2018-06-14T08:28:53.938Z,6.40
2018-06-14T08:31:26.201Z,6.97
2018-06-14T08:33:58.770Z,12.03
2018-06-14T08:36:31.067Z,4.77
2018-06-14T08:39:10.359Z,9.27
2018-06-14T08:41:40.655Z,14.87
2018-06-14T08:44:22.400Z,7.20
2018-06-14T08:46:58.225Z,11.43
2018-06-14T08:49:34.865Z,8.00
2018-06-14T08:52:10.324Z,7.20
2018-06-14T08:54:42.687Z,6.30
2018-06-14T08:57:13.002Z,8.07
2018-06-14T08:59:46.409Z,7.40
2018-06-14T09:02:20.188Z,9.13
2018-06-14T09:04:55.349Z,6.20
2018-06-14T09:07:28.126Z,6.03
2018-06-14T09:10:04.583Z,6.70
2018-06-14T09:12:38.105Z,8.27
2018-06-14T09:15:10.584Z,7.73
2018-06-14T09:17:46.582Z,6.03
2018-06-14T09:20:19.548Z,7.87
2018-06-14T09:22:54.516Z,5.67
2018-06-14T09:28:12.392Z,5.07
2018-06-14T09:30:45.706Z,6.13
2018-06-14T09:33:18.062Z,7.93
2018-06-14T09:35:53.374Z,5.37
2018-06-14T09:38:26.573Z,5.07
2018-06-14T09:41:13.687Z,5.70
2018-06-14T09:43:50.616Z,7.10
2018-06-14T09:46:25.891Z,6.10
2018-06-14T09:49:07.360Z,6.13
2018-06-14T09:51:45.400Z,7.33
2018-06-14T09:55:27.024Z,8.67
2018-06-14T09:58:05.548Z,7.43
2018-06-14T10:00:40.535Z,6.87
2018-06-14T10:06:12.371Z,4.77
2018-06-14T10:08:45.094Z,5.80
2018-06-14T10:11:17.570Z,6.23
2018-06-14T10:13:52.008Z,5.07
2018-06-14T10:16:26.522Z,4.47
2018-06-14T10:18:59.031Z,6.70
2018-06-14T10:21:30.396Z,5.87
2018-06-14T10:24:13.189Z,4.27
2018-06-14T10:29:30.423Z,4.40
2018-06-14T10:32:01.317Z,5.73
2018-06-14T10:34:33.594Z,5.47
2018-06-14T10:37:04.584Z,5.90
2018-06-14T10:39:38.240Z,3.30
2018-06-14T10:42:10.426Z,7.87
2018-06-14T10:44:40.720Z,4.77
2018-06-14T10:47:14.049Z,5.63
2018-06-14T10:49:46.594Z,3.00
2018-06-14T10:52:18.689Z,5.43
2018-06-14T10:54:58.890Z,5.20
2018-06-14T10:57:31.552Z,5.63
2018-06-14T11:00:06.126Z,5.50
2018-06-14T11:02:42.523Z,4.60
2018-06-14T11:05:17.119Z,5.63
2018-06-14T11:07:51.866Z,3.97
2018-06-14T11:10:24.809Z,3.93
2018-06-14T11:12:55.145Z,6.63
2018-06-14T11:15:31.670Z,3.73
2018-06-14T11:18:04.367Z,4.17
2018-06-14T11:20:39.410Z,3.67
2018-06-14T11:23:18.751Z,4.60
2018-06-14T11:25:52.718Z,5.07
2018-06-14T11:28:27.511Z,6.47
2018-06-14T11:31:03.298Z,6.43
2018-06-14T11:33:35.579Z,3.23
2018-06-14T11:36:13.696Z,3.57
2018-06-14T11:38:48.484Z,4.23
2018-06-14T11:41:27.605Z,3.03
2018-06-14T11:44:13.794Z,4.77
2018-06-14T11:49:34.427Z,3.90
2018-06-14T11:52:09.210Z,9.60
2018-06-14T11:54:55.064Z,5.23
2018-06-14T11:57:31.818Z,3.60
2018-06-14T12:00:17.949Z,2.70
2018-06-14T12:02:51.979Z,5.57
2018-06-14T12:05:27.709Z,2.50
2018-06-14T12:07:59.670Z,3.87
2018-06-14T12:10:31.587Z,4.70
2018-06-14T12:13:09.715Z,4.90
2018-06-14T12:15:41.022Z,6.03
2018-06-14T12:18:21.029Z,4.97
2018-06-14T12:20:56.259Z,4.33
2018-06-14T12:23:27.050Z,4.30
2018-06-14T12:25:59.443Z,3.13
2018-06-14T12:28:37.138Z,3.37
2018-06-14T12:31:29.105Z,5.23
2018-06-14T12:34:01.421Z,2.90
2018-06-14T12:36:35.658Z,5.23
2018-06-14T12:39:12.608Z,3.37
2018-06-14T12:41:46.049Z,2.90
2018-06-14T12:44:19.425Z,2.70
2018-06-14T12:46:50.755Z,4.03
2018-06-14T12:52:06.374Z,3.47
2018-06-14T12:54:39.890Z,2.30
2018-06-14T12:57:15.822Z,2.30
2018-06-14T12:59:54.798Z,3.20
2018-06-14T13:02:30.905Z,4.03
2018-06-14T13:05:07.226Z,3.73
2018-06-14T13:07:43.653Z,4.90
2018-06-14T13:10:23.016Z,4.17
2018-06-14T13:12:56.879Z,3.20
2018-06-14T13:15:34.547Z,3.00
2018-06-14T13:18:12.796Z,6.07
2018-06-14T13:20:46.718Z,3.47
2018-06-14T13:23:24.519Z,4.03
2018-06-14T13:26:08.195Z,3.30
2018-06-14T13:28:44.135Z,3.53
2018-06-14T13:31:21.548Z,2.67
2018-06-14T13:34:03.592Z,2.67
2018-06-14T13:36:39.099Z,3.43
2018-06-14T13:39:13.970Z,4.03
2018-06-14T13:41:52.788Z,3.77
2018-06-14T13:44:27.469Z,2.93
2018-06-14T13:47:03.462Z,4.27
2018-06-14T13:49:38.985Z,4.10
2018-06-14T13:52:16.107Z,2.80
2018-06-14T13:54:52.822Z,4.20
2018-06-14T13:57:29.779Z,2.53
2018-06-14T14:00:09.349Z,2.97
2018-06-14T14:02:51.990Z,4.10
2018-06-14T14:08:18.436Z,2.60
2018-06-14T14:10:56.264Z,3.50
2018-06-14T14:13:37.504Z,4.27
2018-06-14T14:16:10.210Z,2.47
2018-06-14T14:18:49.949Z,2.33
2018-06-14T14:21:29.527Z,3.57
2018-06-14T14:24:04.305Z,3.70
2018-06-14T14:26:42.812Z,4.40
2018-06-14T14:29:20.492Z,3.93
2018-06-14T14:32:02.718Z,4.00
2018-06-14T14:34:37.007Z,4.03
2018-06-14T14:37:12.342Z,3.73
2018-06-14T14:39:46.712Z,4.17
2018-06-14T14:42:21.768Z,3.63
2018-06-14T14:45:00.250Z,5.17
2018-06-14T14:47:34.363Z,5.30
2018-06-14T14:50:12.000Z,3.33
2018-06-14T14:52:50.023Z,2.23
2018-06-14T14:55:43.790Z,6.83
2018-06-14T14:58:20.395Z,8.20
2018-06-14T15:01:04.683Z,5.43
2018-06-14T15:03:46.128Z,4.87
2018-06-14T15:06:29.834Z,3.77
2018-06-14T15:09:06.077Z,4.13
2018-06-14T15:11:46.338Z,5.50
2018-06-14T15:14:27.368Z,5.77
2018-06-14T15:17:07.548Z,6.50
2018-06-14T15:19:47.425Z,4.17
2018-06-14T15:22:25.970Z,4.07
2018-06-14T15:25:06.652Z,5.87
2018-06-14T15:27:41.855Z,2.83
2018-06-14T15:30:21.868Z,3.77
2018-06-14T15:32:56.078Z,4.40
2018-06-14T15:35:46.208Z,6.17
2018-06-14T15:38:23.587Z,3.83
2018-06-14T15:40:55.357Z,4.27
2018-06-14T15:43:28.104Z,3.90
2018-06-14T15:46:18.577Z,3.53
2018-06-14T15:49:03.785Z,3.70
2018-06-14T15:51:38.634Z,7.10
2018-06-14T15:54:22.942Z,4.73
2018-06-14T15:56:58.216Z,8.33
2018-06-14T15:59:33.362Z,12.90
2018-06-14T16:02:12.266Z,4.20
2018-06-14T16:04:48.138Z,5.87
2018-06-14T16:07:27.727Z,5.60
2018-06-14T16:10:02.838Z,7.03
2018-06-14T16:12:41.887Z,7.60
2018-06-14T16:15:21.585Z,4.63
2018-06-14T16:18:01.028Z,4.43
2018-06-14T16:20:42.919Z,6.40
2018-06-14T16:23:29.525Z,6.47
2018-06-14T16:26:11.782Z,6.70
2018-06-14T16:28:50.074Z,6.27
2018-06-14T16:31:34.438Z,8.83
2018-06-14T16:34:10.056Z,4.57
2018-06-14T16:36:43.463Z,4.47
2018-06-14T16:39:16.538Z,6.17
2018-06-14T16:41:50.752Z,5.30
2018-06-14T16:44:29.200Z,4.93
2018-06-14T16:47:04.762Z,6.27
2018-06-14T16:49:46.959Z,8.03
2018-06-14T16:52:24.511Z,7.60
2018-06-14T16:55:03.669Z,5.27
2018-06-14T16:57:40.980Z,6.17
2018-06-14T17:00:17.785Z,6.43
2018-06-14T17:02:57.173Z,6.57
2018-06-14T17:05:33.525Z,5.97
2018-06-14T17:08:10.720Z,5.80
2018-06-14T17:10:46.307Z,4.87
2018-06-14T17:13:22.595Z,6.47
2018-06-14T17:15:57.113Z,5.43
2018-06-14T17:18:36.574Z,5.17
2018-06-14T17:21:09.540Z,7.47
2018-06-14T17:23:45.159Z,6.17
2018-06-14T17:26:26.034Z,5.80
2018-06-14T17:29:06.240Z,6.87
2018-06-14T17:31:42.371Z,6.33
2018-06-14T17:34:16.634Z,7.50
2018-06-14T17:36:48.564Z,5.40
2018-06-14T17:39:26.459Z,7.63
2018-06-14T17:42:05.841Z,5.77
2018-06-14T17:44:39.158Z,6.93
2018-06-14T17:47:13.899Z,7.00
2018-06-14T17:49:48.982Z,5.60
2018-06-14T17:52:25.700Z,5.77
2018-06-14T17:55:02.750Z,8.40
2018-06-14T17:57:36.644Z,7.77
2018-06-14T18:00:13.560Z,10.17
2018-06-14T18:02:50.862Z,5.73
2018-06-14T18:05:25.151Z,6.93
2018-06-14T18:07:58.560Z,7.43
2018-06-14T18:10:31.073Z,6.10
2018-06-14T18:13:04.686Z,8.80
2018-06-14T18:15:39.748Z,9.43
2018-06-14T18:18:19.846Z,8.57
2018-06-14T18:20:59.202Z,6.87
2018-06-14T18:23:33.342Z,6.17
2018-06-14T18:26:18.009Z,7.53
2018-06-14T18:28:51.960Z,7.07
2018-06-14T18:31:25.739Z,6.10
2018-06-14T18:33:58.318Z,7.23
2018-06-14T18:36:28.974Z,7.40
2018-06-14T18:39:03.492Z,6.63
2018-06-14T18:41:43.914Z,6.17
2018-06-14T18:44:21.389Z,5.60
2018-06-14T18:46:59.143Z,9.67
2018-06-14T18:49:32.510Z,6.30
2018-06-14T18:52:06.451Z,7.07
2018-06-14T18:54:53.752Z,7.57
2018-06-14T18:57:27.006Z,6.60
2018-06-14T19:00:04.767Z,8.33
2018-06-14T19:02:39.648Z,7.23
2018-06-14T19:05:24.481Z,8.07
2018-06-14T19:07:56.581Z,7.80
2018-06-14T19:10:32.350Z,8.00
2018-06-14T19:15:59.756Z,9.93
2018-06-14T19:18:47.216Z,7.37
2018-06-14T19:21:27.856Z,7.70
2018-06-14T19:24:02.729Z,7.57
2018-06-14T19:26:41.929Z,6.40
2018-06-14T19:29:16.956Z,7.03
2018-06-14T19:34:27.866Z,8.90
2018-06-14T19:37:07.941Z,6.73
2018-06-14T19:39:43.213Z,7.87
2018-06-14T19:42:21.723Z,6.87
2018-06-14T19:45:09.075Z,8.40
2018-06-14T19:47:41.935Z,8.43
2018-06-14T19:50:16.609Z,7.33
2018-06-14T19:52:53.766Z,6.73
2018-06-14T19:55:27.343Z,8.60
2018-06-14T19:58:01.941Z,6.77
2018-06-14T20:00:35.104Z,9.53
2018-06-14T20:03:11.447Z,8.33
2018-06-14T20:05:42.920Z,7.60
2018-06-14T20:08:13.673Z,6.67
2018-06-14T20:10:44.953Z,8.30
2018-06-14T20:13:19.947Z,8.17
2018-06-14T20:15:54.046Z,8.33
2018-06-14T20:18:28.650Z,7.03
2018-06-14T20:21:02.005Z,7.87
2018-06-14T20:23:39.854Z,7.67
2018-06-14T20:26:12.282Z,7.70
2018-06-14T20:28:47.592Z,7.17
2018-06-14T20:31:29.033Z,10.67
2018-06-14T20:34:00.593Z,9.13
2018-06-14T20:36:35.869Z,8.43
2018-06-14T20:39:13.437Z,15.40
2018-06-14T20:41:52.880Z,7.60
2018-06-14T20:44:24.425Z,7.83
2018-06-14T20:46:57.895Z,7.97
2018-06-14T20:49:34.949Z,9.00
2018-06-14T20:52:10.250Z,8.93
2018-06-14T20:54:45.735Z,8.47
2018-06-14T20:57:16.533Z,8.70
2018-06-14T20:59:53.583Z,6.97
2018-06-14T21:02:27.557Z,8.63
2018-06-14T21:05:04.635Z,7.27
2018-06-14T21:07:46.100Z,5.97
2018-06-14T21:10:18.783Z,8.03
2018-06-14T21:12:50.910Z,6.10
2018-06-14T21:15:27.312Z,6.67
2018-06-14T21:17:59.640Z,6.03
2018-06-14T21:23:16.792Z,6.70
2018-06-14T21:25:51.408Z,6.03
2018-06-14T21:28:25.067Z,8.17
2018-06-14T21:31:01.759Z,6.07
2018-06-14T21:33:37.530Z,6.10
2018-06-14T21:36:11.935Z,6.20
2018-06-14T21:38:52.140Z,5.70
2018-06-14T21:41:26.491Z,7.47
2018-06-14T21:44:03.874Z,5.90
2018-06-14T21:46:38.260Z,9.67
2018-06-14T21:49:17.963Z,8.57
2018-06-14T21:51:50.105Z,5.90
2018-06-14T21:54:29.917Z,6.27
2018-06-14T21:57:01.547Z,8.77
2018-06-14T21:59:35.768Z,7.00
2018-06-14T22:02:11.270Z,7.97
2018-06-14T22:04:42.133Z,7.50
2018-06-14T22:07:22.739Z,6.40
2018-06-14T22:09:57.940Z,7.60
2018-06-14T22:12:31.365Z,7.30
2018-06-14T22:15:03.259Z,5.80
2018-06-14T22:17:35.044Z,6.50
2018-06-14T22:20:07.938Z,6.67
2018-06-14T22:22:39.688Z,7.87
2018-06-14T22:25:15.897Z,6.43
2018-06-14T22:27:47.307Z,7.43
2018-06-14T22:30:25.227Z,8.23
2018-06-14T22:33:06.138Z,6.90
2018-06-14T22:35:39.253Z,6.67
2018-06-14T22:38:10.311Z,8.73
2018-06-14T22:40:41.204Z,7.73
2018-06-14T22:43:13.079Z,7.77
2018-06-14T22:45:43.682Z,6.13
2018-06-14T22:48:14.965Z,8.33
2018-06-14T22:50:56.034Z,6.03
2018-06-14T22:53:28.974Z,7.87
2018-06-14T22:56:04.265Z,8.10
2018-06-14T22:58:34.970Z,6.40
2018-06-14T23:01:39.990Z,10.47
2018-06-14T23:04:12.440Z,9.00
2018-06-14T23:06:47.253Z,8.00
2018-06-14T23:10:29.394Z,7.93
2018-06-14T23:13:03.903Z,9.13
2018-06-14T23:15:34.634Z,6.67
2018-06-14T23:18:10.107Z,7.80
2018-06-14T23:20:42.449Z,8.03
2018-06-14T23:23:13.546Z,8.47
2018-06-14T23:25:45.405Z,8.47
2018-06-14T23:28:17.045Z,6.90
2018-06-14T23:30:49.078Z,8.33
2018-06-14T23:33:20.478Z,6.90
2018-06-14T23:35:53.479Z,7.63
2018-06-14T23:38:25.182Z,6.80
2018-06-14T23:40:55.304Z,7.47
2018-06-14T23:43:30.419Z,9.13
2018-06-14T23:46:00.784Z,7.23
2018-06-14T23:48:30.852Z,8.33
2018-06-14T23:51:01.017Z,9.27
2018-06-14T23:53:32.124Z,10.67
2018-06-14T23:56:02.864Z,9.37
2018-06-14T23:58:34.347Z,10.50
